Time,TemperatureF,DewpointF,PressureIn,WindDirection,WindDirectionDegrees,WindSpeedMPH,WindSpeedGustMPH,Humidity,HourlyPrecipIn,Conditions,Clouds,dailyrainin,SoftwareType,DateUTC
2013-09-20 00:02:00,60.8,50.2,29.88,WSW,248,3.8,3.8,68,0.00,,---,0.00,VWS V14.00,2013-09-20 04:02:00,
2013-09-20 00:06:00,60.8,50.2,29.88,WSW,248,5.4,5.4,68,0.00,,---,0.00,VWS V14.00,2013-09-20 04:06:00,
2013-09-20 00:12:00,60.8,50.2,29.88,WSW,248,3.1,3.1,68,0.00,,---,0.00,VWS V14.00,2013-09-20 04:12:00,
2013-09-20 00:14:00,60.8,50.2,29.88,WSW,248,5.6,5.6,68,0.00,,---,0.00,VWS V14.00,2013-09-20 04:14:00,
2013-09-20 00:18:00,60.6,50.4,29.88,West,270,2.7,3.4,69,0.00,,---,0.00,VWS V14.00,2013-09-20 04:18:00,
2013-09-20 00:23:00,60.6,50.4,29.88,West,270,2.0,3.4,69,0.00,,---,0.00,VWS V14.00,2013-09-20 04:23:00,
2013-09-20 00:28:00,60.4,50.6,29.88,WNW,292,3.1,3.1,70,0.00,,---,0.00,VWS V14.00,2013-09-20 04:28:00,
2013-09-20 00:33:00,60.3,50.1,29.88,WSW,248,3.6,3.6,69,0.00,,---,0.00,VWS V14.00,2013-09-20 04:33:00,
2013-09-20 00:39:00,60.3,50.1,29.88,WNW,292,2.2,2.9,69,0.00,,---,0.00,VWS V14.00,2013-09-20 04:39:00,
2013-09-20 00:44:00,59.9,49.7,29.88,West,270,2.0,2.5,69,0.00,,---,0.00,VWS V14.00,2013-09-20 04:44:00,
2013-09-20 00:49:00,59.9,50.1,29.88,WSW,248,2.2,2.2,70,0.00,,---,0.00,VWS V14.00,2013-09-20 04:49:00,
2013-09-20 00:54:00,59.5,49.8,29.88,West,270,2.7,2.7,70,0.00,,---,0.00,VWS V14.00,2013-09-20 04:54:00,
2013-09-20 00:59:00,59.4,49.6,29.88,WSW,248,2.9,3.6,70,0.00,,---,0.00,VWS V14.00,2013-09-20 04:59:00,
2013-09-20 01:05:00,59.4,49.6,29.88,WSW,248,2.9,2.9,70,0.00,,---,0.00,VWS V14.00,2013-09-20 05:05:00,
2013-09-20 01:11:00,59.2,49.8,29.88,WSW,248,2.9,2.9,71,0.00,,---,0.00,VWS V14.00,2013-09-20 05:11:00,
2013-09-20 01:16:00,59.0,49.6,29.88,WSW,248,2.0,3.1,71,0.00,,---,0.00,VWS V14.00,2013-09-20 05:16:00,
2013-09-20 01:21:00,59.0,49.6,29.88,WSW,248,2.9,3.1,71,0.00,,---,0.00,VWS V14.00,2013-09-20 05:21:00,
2013-09-20 01:26:00,58.8,49.8,29.88,WSW,248,2.9,2.9,72,0.00,,---,0.00,VWS V14.00,2013-09-20 05:26:00,
2013-09-20 01:31:00,58.8,49.8,29.88,WSW,248,2.7,3.8,72,0.00,,---,0.00,VWS V14.00,2013-09-20 05:31:00,
2013-09-20 01:36:00,58.6,49.7,29.88,WSW,248,2.9,3.1,72,0.00,,---,0.00,VWS V14.00,2013-09-20 05:36:00,
2013-09-20 01:41:00,58.6,49.7,29.88,WSW,248,4.0,4.0,72,0.00,,---,0.00,VWS V14.00,2013-09-20 05:41:00,
2013-09-20 01:46:00,58.6,49.7,29.88,West,270,3.1,3.4,72,0.00,,---,0.00,VWS V14.00,2013-09-20 05:46:00,
2013-09-20 01:51:00,58.5,49.5,29.88,WSW,248,4.0,4.0,72,0.00,,---,0.00,VWS V14.00,2013-09-20 05:51:00,
2013-09-20 01:56:00,58.5,49.8,29.88,West,270,2.2,4.9,73,0.00,,---,0.00,VWS V14.00,2013-09-20 05:56:00,
2013-09-20 02:02:00,58.5,49.8,29.88,West,270,3.8,4.0,73,0.00,,---,0.00,VWS V14.00,2013-09-20 06:02:00,
2013-09-20 02:07:00,58.5,49.8,29.88,West,270,3.6,3.8,73,0.00,,---,0.00,VWS V14.00,2013-09-20 06:07:00,
2013-09-20 02:13:00,58.5,49.8,29.91,WSW,248,3.4,4.0,73,0.00,,---,0.00,VWS V14.00,2013-09-20 06:13:00,
2013-09-20 02:19:00,58.3,49.7,29.91,WSW,248,3.6,4.3,73,0.00,,---,0.00,VWS V14.00,2013-09-20 06:19:00,
2013-09-20 02:24:00,58.5,50.2,29.91,WNW,292,3.6,3.6,74,0.00,,---,0.00,VWS V14.00,2013-09-20 06:24:00,
2013-09-20 02:29:00,58.3,50.0,29.88,WSW,248,2.7,3.1,74,0.00,,---,0.00,VWS V14.00,2013-09-20 06:29:00,
2013-09-20 02:34:00,58.3,50.0,29.88,WNW,292,2.7,2.7,74,0.00,,---,0.00,VWS V14.00,2013-09-20 06:34:00,
2013-09-20 02:39:00,58.3,50.0,29.88,West,270,2.7,2.7,74,0.00,,---,0.00,VWS V14.00,2013-09-20 06:39:00,
2013-09-20 02:44:00,58.1,49.9,29.91,West,270,2.2,2.9,74,0.00,,---,0.00,VWS V14.00,2013-09-20 06:44:00,
2013-09-20 02:49:00,58.1,49.9,29.91,WSW,248,2.9,3.8,74,0.00,,---,0.00,VWS V14.00,2013-09-20 06:49:00,
2013-09-20 02:54:00,58.1,50.2,29.91,WSW,248,3.6,4.0,75,0.00,,---,0.00,VWS V14.00,2013-09-20 06:54:00,
2013-09-20 03:00:00,58.1,50.2,29.91,WSW,248,2.7,2.7,75,0.00,,---,0.00,VWS V14.00,2013-09-20 07:00:00,
2013-09-20 03:05:00,58.1,50.2,29.91,WNW,292,3.1,3.1,75,0.00,,---,0.00,VWS V14.00,2013-09-20 07:05:00,
2013-09-20 03:11:00,58.1,50.2,29.91,West,270,3.1,4.0,75,0.00,,---,0.00,VWS V14.00,2013-09-20 07:11:00,
2013-09-20 03:16:00,58.1,50.2,29.91,WSW,248,3.6,3.6,75,0.00,,---,0.00,VWS V14.00,2013-09-20 07:16:00,
2013-09-20 03:21:00,57.9,50.0,29.91,WSW,248,2.5,2.5,75,0.00,,---,0.00,VWS V14.00,2013-09-20 07:21:00,
2013-09-20 03:26:00,57.9,50.4,29.91,WSW,248,2.2,2.7,76,0.00,,---,0.00,VWS V14.00,2013-09-20 07:26:00,
2013-09-20 03:31:00,57.9,50.4,29.91,WSW,248,2.5,2.7,76,0.00,,---,0.00,VWS V14.00,2013-09-20 07:31:00,
2013-09-20 03:36:00,57.7,50.2,29.91,WSW,248,2.0,2.2,76,0.00,,---,0.00,VWS V14.00,2013-09-20 07:36:00,
2013-09-20 03:42:00,57.7,50.2,29.91,WSW,248,2.9,2.9,76,0.00,,---,0.00,VWS V14.00,2013-09-20 07:42:00,
2013-09-20 03:47:00,57.6,50.1,29.91,WSW,248,2.2,2.5,76,0.00,,---,0.00,VWS V14.00,2013-09-20 07:47:00,
2013-09-20 03:52:00,57.4,50.2,29.91,WSW,248,1.1,2.5,77,0.00,,---,0.00,VWS V14.00,2013-09-20 07:52:00,
2013-09-20 03:58:00,57.2,50.1,29.91,West,270,2.0,3.6,77,0.00,,---,0.00,VWS V14.00,2013-09-20 07:58:00,
2013-09-20 04:03:00,57.2,50.1,29.91,WSW,248,1.6,2.5,77,0.00,,---,0.00,VWS V14.00,2013-09-20 08:03:00,
2013-09-20 04:08:00,57.2,50.1,29.91,WNW,292,2.9,2.9,77,0.00,,---,0.00,VWS V14.00,2013-09-20 08:08:00,
2013-09-20 04:13:00,57.0,50.2,29.91,WNW,292,1.3,3.4,78,0.00,,---,0.00,VWS V14.00,2013-09-20 08:13:00,
2013-09-20 04:18:00,57.0,50.2,29.91,WNW,292,2.5,2.5,78,0.00,,---,0.00,VWS V14.00,2013-09-20 08:18:00,
2013-09-20 04:23:00,57.0,50.2,29.91,West,270,2.7,2.7,78,0.00,,---,0.00,VWS V14.00,2013-09-20 08:23:00,
2013-09-20 04:28:00,56.8,50.1,29.91,WSW,248,2.2,2.9,78,0.00,,---,0.00,VWS V14.00,2013-09-20 08:28:00,
2013-09-20 04:33:00,56.8,50.1,29.91,WSW,248,2.5,2.5,78,0.00,,---,0.00,VWS V14.00,2013-09-20 08:33:00,
2013-09-20 04:38:00,56.8,50.1,29.91,WNW,292,2.7,2.7,78,0.00,,---,0.00,VWS V14.00,2013-09-20 08:38:00,
2013-09-20 04:43:00,56.8,50.4,29.91,WNW,292,2.5,2.5,79,0.00,,---,0.00,VWS V14.00,2013-09-20 08:43:00,
2013-09-20 04:49:00,56.8,50.4,29.91,WSW,248,1.1,1.6,79,0.00,,---,0.00,VWS V14.00,2013-09-20 08:49:00,
2013-09-20 04:55:00,56.8,50.4,29.91,WNW,292,2.7,2.7,79,0.00,,---,0.00,VWS V14.00,2013-09-20 08:55:00,
2013-09-20 05:00:00,56.8,50.4,29.91,WSW,248,2.5,2.5,79,0.00,,---,0.00,VWS V14.00,2013-09-20 09:00:00,
2013-09-20 05:05:00,56.8,50.4,29.91,WSW,248,1.1,1.6,79,0.00,,---,0.00,VWS V14.00,2013-09-20 09:05:00,
2013-09-20 05:10:00,56.8,50.4,29.91,WSW,248,2.5,2.9,79,0.00,,---,0.00,VWS V14.00,2013-09-20 09:10:00,
2013-09-20 05:16:00,56.8,50.4,29.91,WNW,292,2.9,2.9,79,0.00,,---,0.00,VWS V14.00,2013-09-20 09:16:00,
2013-09-20 05:21:00,56.8,50.4,29.91,WSW,248,1.6,2.5,79,0.00,,---,0.00,VWS V14.00,2013-09-20 09:21:00,
2013-09-20 05:26:00,56.8,50.7,29.91,WNW,292,3.1,3.1,80,0.00,,---,0.00,VWS V14.00,2013-09-20 09:26:00,
2013-09-20 05:31:00,56.7,50.6,29.91,WSW,248,2.5,2.5,80,0.00,,---,0.00,VWS V14.00,2013-09-20 09:31:00,
2013-09-20 05:37:00,56.7,50.6,29.91,WSW,248,2.9,2.9,80,0.00,,---,0.00,VWS V14.00,2013-09-20 09:37:00,
2013-09-20 05:42:00,56.7,50.6,29.91,WSW,248,2.9,3.4,80,0.00,,---,0.00,VWS V14.00,2013-09-20 09:42:00,
2013-09-20 05:47:00,56.7,50.6,29.91,West,270,2.7,2.7,80,0.00,,---,0.00,VWS V14.00,2013-09-20 09:47:00,
2013-09-20 05:52:00,56.5,50.4,29.91,West,270,1.6,1.6,80,0.00,,---,0.00,VWS V14.00,2013-09-20 09:52:00,
2013-09-20 05:58:00,56.5,50.4,29.91,WNW,292,2.5,2.5,80,0.00,,---,0.00,VWS V14.00,2013-09-20 09:58:00,
2013-09-20 06:03:00,56.5,50.4,29.91,WSW,248,1.6,2.5,80,0.00,,---,0.00,VWS V14.00,2013-09-20 10:03:00,
2013-09-20 06:08:00,56.3,50.2,29.91,West,270,1.6,2.5,80,0.00,,---,0.00,VWS V14.00,2013-09-20 10:08:00,
2013-09-20 06:14:00,56.3,50.2,29.91,WSW,248,2.7,2.7,80,0.00,,---,0.00,VWS V14.00,2013-09-20 10:14:00,
2013-09-20 06:19:00,56.3,50.5,29.91,WSW,248,2.0,2.5,81,0.00,,---,0.00,VWS V14.00,2013-09-20 10:19:00,
2013-09-20 06:24:00,56.3,50.5,29.91,West,270,2.5,2.7,81,0.00,,---,0.00,VWS V14.00,2013-09-20 10:24:00,
2013-09-20 06:29:00,56.3,50.5,29.91,SW,225,2.5,2.5,81,0.00,,---,0.00,VWS V14.00,2013-09-20 10:29:00,
2013-09-20 06:34:00,56.3,50.5,29.91,WNW,292,1.1,2.0,81,0.00,,---,0.00,VWS V14.00,2013-09-20 10:34:00,
2013-09-20 06:40:00,56.3,50.5,29.91,WSW,248,2.0,2.2,81,0.00,,---,0.00,VWS V14.00,2013-09-20 10:40:00,
2013-09-20 06:45:00,56.3,50.5,29.91,WSW,248,1.3,1.3,81,0.00,,---,0.00,VWS V14.00,2013-09-20 10:45:00,
2013-09-20 06:51:00,56.3,50.5,29.91,West,270,2.9,2.9,81,0.00,,---,0.00,VWS V14.00,2013-09-20 10:51:00,
2013-09-20 06:56:00,56.3,50.5,29.91,West,270,1.6,2.5,81,0.00,,---,0.00,VWS V14.00,2013-09-20 10:56:00,
2013-09-20 07:01:00,56.3,50.5,29.91,WSW,248,2.9,2.9,81,0.00,,---,0.00,VWS V14.00,2013-09-20 11:01:00,
2013-09-20 07:07:00,56.3,50.5,29.91,West,270,1.3,2.7,81,0.00,,---,0.00,VWS V14.00,2013-09-20 11:07:00,
2013-09-20 07:13:00,56.3,50.5,29.91,West,270,2.2,2.2,81,0.00,,---,0.00,VWS V14.00,2013-09-20 11:13:00,
2013-09-20 07:18:00,56.3,50.5,29.91,WNW,292,2.5,2.5,81,0.00,,---,0.00,VWS V14.00,2013-09-20 11:18:00,
2013-09-20 07:24:00,57.0,51.3,29.91,WSW,248,2.5,2.5,81,0.00,,---,0.00,VWS V14.00,2013-09-20 11:24:00,
2013-09-20 07:30:00,56.8,51.1,29.91,WSW,248,2.7,2.9,81,0.00,,---,0.00,VWS V14.00,2013-09-20 11:30:00,
2013-09-20 07:35:00,56.8,51.1,29.91,SW,225,4.0,4.0,81,0.00,,---,0.00,VWS V14.00,2013-09-20 11:35:00,
2013-09-20 07:40:00,56.8,51.1,29.91,WNW,292,2.9,2.9,81,0.00,,---,0.00,VWS V14.00,2013-09-20 11:40:00,
2013-09-20 07:46:00,56.8,51.1,29.91,West,270,2.5,2.5,81,0.00,,---,0.00,VWS V14.00,2013-09-20 11:46:00,
2013-09-20 07:51:00,57.2,51.4,29.91,West,270,3.6,3.6,81,0.00,,---,0.00,VWS V14.00,2013-09-20 11:51:00,
2013-09-20 07:57:00,57.4,51.6,29.91,WSW,248,2.2,2.5,81,0.00,,---,0.00,VWS V14.00,2013-09-20 11:57:00,
2013-09-20 08:03:00,57.7,52.3,29.91,WSW,248,2.5,2.5,82,0.00,,---,0.00,VWS V14.00,2013-09-20 12:03:00,
2013-09-20 08:08:00,58.1,52.3,29.91,WSW,248,2.9,2.9,81,0.00,,---,0.00,VWS V14.00,2013-09-20 12:08:00,
2013-09-20 08:13:00,58.3,52.5,29.91,West,270,1.3,2.2,81,0.00,,---,0.00,VWS V14.00,2013-09-20 12:13:00,
2013-09-20 08:18:00,58.5,53.0,29.91,WNW,292,2.2,2.5,82,0.00,,---,0.00,VWS V14.00,2013-09-20 12:18:00,
2013-09-20 08:23:00,58.8,53.3,29.91,West,270,2.7,2.7,82,0.00,,---,0.00,VWS V14.00,2013-09-20 12:23:00,